sensor_id;sensor_type;location;lat;lon;timestamp;P1;durP1;ratioP1;P2;durP2;ratioP2
36213;SDS011;37652;50.400;30.628;2022-09-17T00:00:58;10.75;;;9.63;;
36213;SDS011;37652;50.400;30.628;2022-09-17T00:05:01;11.63;;;8.52;;
36213;SDS011;37652;50.400;30.628;2022-09-17T00:07:02;10.30;;;8.10;;
36213;SDS011;37652;50.400;30.628;2022-09-17T00:09:04;13.68;;;8.55;;
36213;SDS011;37652;50.400;30.628;2022-09-17T00:11:15;11.50;;;8.45;;
36213;SDS011;37652;50.400;30.628;2022-09-17T00:13:20;8.63;;;7.88;;
36213;SDS011;37652;50.400;30.628;2022-09-17T00:15:21;8.68;;;7.78;;
36213;SDS011;37652;50.400;30.628;2022-09-17T00:17:21;10.48;;;8.52;;
36213;SDS011;37652;50.400;30.628;2022-09-17T00:19:22;11.00;;;8.52;;
36213;SDS011;37652;50.400;30.628;2022-09-17T00:21:24;10.20;;;8.93;;
36213;SDS011;37652;50.400;30.628;2022-09-17T00:23:25;9.02;;;8.05;;
36213;SDS011;37652;50.400;30.628;2022-09-17T00:25:26;8.57;;;7.65;;
36213;SDS011;37652;50.400;30.628;2022-09-17T00:27:27;8.77;;;7.93;;
36213;SDS011;37652;50.400;30.628;2022-09-17T00:29:28;11.85;;;9.05;;
36213;SDS011;37652;50.400;30.628;2022-09-17T00:31:29;10.68;;;8.27;;
36213;SDS011;37652;50.400;30.628;2022-09-17T00:33:30;12.38;;;9.70;;
36213;SDS011;37652;50.400;30.628;2022-09-17T00:35:31;11.70;;;9.68;;
36213;SDS011;37652;50.400;30.628;2022-09-17T00:37:32;13.77;;;8.55;;
36213;SDS011;37652;50.400;30.628;2022-09-17T00:39:33;10.70;;;9.57;;
36213;SDS011;37652;50.400;30.628;2022-09-17T00:41:34;9.05;;;8.10;;
36213;SDS011;37652;50.400;30.628;2022-09-17T00:45:47;10.10;;;9.10;;
36213;SDS011;37652;50.400;30.628;2022-09-17T00:47:56;15.35;;;10.23;;
36213;SDS011;37652;50.400;30.628;2022-09-17T00:50:09;10.77;;;9.63;;
36213;SDS011;37652;50.400;30.628;2022-09-17T00:52:19;10.30;;;9.30;;
36213;SDS011;37652;50.400;30.628;2022-09-17T00:54:23;13.80;;;9.90;;
36213;SDS011;37652;50.400;30.628;2022-09-17T00:56:25;10.27;;;9.27;;
36213;SDS011;37652;50.400;30.628;2022-09-17T00:58:28;10.35;;;8.98;;
36213;SDS011;37652;50.400;30.628;2022-09-17T01:00:31;9.30;;;8.30;;
36213;SDS011;37652;50.400;30.628;2022-09-17T01:02:33;11.43;;;8.93;;
36213;SDS011;37652;50.400;30.628;2022-09-17T01:04:34;13.85;;;9.43;;
36213;SDS011;37652;50.400;30.628;2022-09-17T01:06:41;9.73;;;8.82;;
36213;SDS011;37652;50.400;30.628;2022-09-17T01:11:19;8.60;;;7.72;;
36213;SDS011;37652;50.400;30.628;2022-09-17T01:14:13;8.20;;;7.40;;
36213;SDS011;37652;50.400;30.628;2022-09-17T01:18:58;8.77;;;7.88;;
36213;SDS011;37652;50.400;30.628;2022-09-17T01:30:36;8.88;;;7.55;;
36213;SDS011;37652;50.400;30.628;2022-09-17T01:33:04;8.15;;;7.35;;
36213;SDS011;37652;50.400;30.628;2022-09-17T01:36:09;7.57;;;6.88;;
36213;SDS011;37652;50.400;30.628;2022-09-17T01:40:06;8.07;;;7.07;;
36213;SDS011;37652;50.400;30.628;2022-09-17T01:42:58;8.75;;;7.47;;
36213;SDS011;37652;50.400;30.628;2022-09-17T01:46:43;9.45;;;7.15;;
36213;SDS011;37652;50.400;30.628;2022-09-17T01:48:49;7.68;;;6.88;;
36213;SDS011;37652;50.400;30.628;2022-09-17T01:50:56;9.05;;;8.07;;
36213;SDS011;37652;50.400;30.628;2022-09-17T01:53:03;8.82;;;8.00;;
36213;SDS011;37652;50.400;30.628;2022-09-17T01:55:08;9.07;;;7.68;;
36213;SDS011;37652;50.400;30.628;2022-09-17T01:57:18;7.88;;;6.97;;
36213;SDS011;37652;50.400;30.628;2022-09-17T01:59:47;8.05;;;7.32;;
36213;SDS011;37652;50.400;30.628;2022-09-17T02:04:17;7.75;;;6.85;;
36213;SDS011;37652;50.400;30.628;2022-09-17T02:06:24;7.65;;;6.85;;
36213;SDS011;37652;50.400;30.628;2022-09-17T02:08:33;8.05;;;6.95;;
36213;SDS011;37652;50.400;30.628;2022-09-17T02:10:49;7.45;;;6.75;;
36213;SDS011;37652;50.400;30.628;2022-09-17T02:13:06;7.13;;;6.18;;
36213;SDS011;37652;50.400;30.628;2022-09-17T02:15:16;8.85;;;7.95;;
36213;SDS011;37652;50.400;30.628;2022-09-17T02:17:42;11.60;;;7.65;;
36213;SDS011;37652;50.400;30.628;2022-09-17T02:19:48;9.60;;;7.70;;
36213;SDS011;37652;50.400;30.628;2022-09-17T02:24:34;8.40;;;7.60;;
36213;SDS011;37652;50.400;30.628;2022-09-17T02:26:24;6.72;;;6.13;;
36213;SDS011;37652;50.400;30.628;2022-09-17T02:30:28;7.07;;;6.10;;
36213;SDS011;37652;50.400;30.628;2022-09-17T02:32:29;7.13;;;6.20;;
36213;SDS011;37652;50.400;30.628;2022-09-17T02:34:30;8.07;;;6.85;;
36213;SDS011;37652;50.400;30.628;2022-09-17T02:36:31;9.90;;;7.03;;
36213;SDS011;37652;50.400;30.628;2022-09-17T02:38:34;8.52;;;7.72;;
36213;SDS011;37652;50.400;30.628;2022-09-17T02:40:37;10.70;;;7.75;;
36213;SDS011;37652;50.400;30.628;2022-09-17T02:42:53;7.93;;;7.13;;
36213;SDS011;37652;50.400;30.628;2022-09-17T02:51:37;8.98;;;8.00;;
36213;SDS011;37652;50.400;30.628;2022-09-17T02:53:47;8.90;;;7.07;;
36213;SDS011;37652;50.400;30.628;2022-09-17T02:56:19;9.50;;;6.95;;
36213;SDS011;37652;50.400;30.628;2022-09-17T02:58:25;8.57;;;7.75;;
36213;SDS011;37652;50.400;30.628;2022-09-17T03:00:34;11.32;;;8.75;;
36213;SDS011;37652;50.400;30.628;2022-09-17T03:04:49;9.55;;;8.68;;
36213;SDS011;37652;50.400;30.628;2022-09-17T03:06:50;10.98;;;9.45;;
36213;SDS011;37652;50.400;30.628;2022-09-17T03:08:52;12.48;;;9.82;;
36213;SDS011;37652;50.400;30.628;2022-09-17T03:10:56;11.63;;;10.50;;
36213;SDS011;37652;50.400;30.628;2022-09-17T03:12:57;16.70;;;13.20;;
36213;SDS011;37652;50.400;30.628;2022-09-17T03:16:58;13.17;;;11.37;;
36213;SDS011;37652;50.400;30.628;2022-09-17T03:18:59;13.82;;;11.68;;
36213;SDS011;37652;50.400;30.628;2022-09-17T03:21:00;15.40;;;11.40;;
36213;SDS011;37652;50.400;30.628;2022-09-17T03:23:01;12.63;;;11.32;;
36213;SDS011;37652;50.400;30.628;2022-09-17T03:25:02;11.30;;;9.93;;
36213;SDS011;37652;50.400;30.628;2022-09-17T03:27:04;12.43;;;10.38;;
36213;SDS011;37652;50.400;30.628;2022-09-17T03:29:05;11.05;;;9.27;;
36213;SDS011;37652;50.400;30.628;2022-09-17T03:31:06;14.27;;;10.00;;
36213;SDS011;37652;50.400;30.628;2022-09-17T03:33:07;14.65;;;10.85;;
36213;SDS011;37652;50.400;30.628;2022-09-17T03:35:08;11.88;;;10.00;;
36213;SDS011;37652;50.400;30.628;2022-09-17T03:37:09;11.05;;;10.05;;
36213;SDS011;37652;50.400;30.628;2022-09-17T03:39:10;12.63;;;9.50;;
36213;SDS011;37652;50.400;30.628;2022-09-17T03:41:10;10.60;;;9.52;;
36213;SDS011;37652;50.400;30.628;2022-09-17T03:43:12;10.60;;;8.35;;
36213;SDS011;37652;50.400;30.628;2022-09-17T03:45:13;9.30;;;8.38;;
36213;SDS011;37652;50.400;30.628;2022-09-17T03:47:14;12.45;;;8.40;;
36213;SDS011;37652;50.400;30.628;2022-09-17T03:49:15;8.65;;;7.82;;
36213;SDS011;37652;50.400;30.628;2022-09-17T03:51:17;10.63;;;8.00;;
36213;SDS011;37652;50.400;30.628;2022-09-17T03:53:17;10.27;;;9.18;;
36213;SDS011;37652;50.400;30.628;2022-09-17T03:55:18;8.77;;;8.00;;
36213;SDS011;37652;50.400;30.628;2022-09-17T03:57:19;8.75;;;7.95;;
36213;SDS011;37652;50.400;30.628;2022-09-17T03:59:21;8.98;;;8.02;;
36213;SDS011;37652;50.400;30.628;2022-09-17T04:01:22;11.45;;;9.23;;
36213;SDS011;37652;50.400;30.628;2022-09-17T04:03:24;9.63;;;8.43;;
36213;SDS011;37652;50.400;30.628;2022-09-17T04:05:26;9.80;;;8.43;;
36213;SDS011;37652;50.400;30.628;2022-09-17T04:07:28;9.48;;;8.05;;
36213;SDS011;37652;50.400;30.628;2022-09-17T04:09:28;9.00;;;8.07;;
36213;SDS011;37652;50.400;30.628;2022-09-17T04:11:30;10.68;;;8.27;;
36213;SDS011;37652;50.400;30.628;2022-09-17T04:13:31;10.05;;;8.77;;
36213;SDS011;37652;50.400;30.628;2022-09-17T04:15:31;11.13;;;8.30;;
36213;SDS011;37652;50.400;30.628;2022-09-17T04:17:33;9.85;;;8.85;;
36213;SDS011;37652;50.400;30.628;2022-09-17T04:19:34;10.50;;;9.38;;
36213;SDS011;37652;50.400;30.628;2022-09-17T04:21:35;9.93;;;9.02;;
36213;SDS011;37652;50.400;30.628;2022-09-17T04:23:36;11.25;;;9.20;;
36213;SDS011;37652;50.400;30.628;2022-09-17T04:25:37;9.77;;;8.88;;
36213;SDS011;37652;50.400;30.628;2022-09-17T04:29:39;10.43;;;8.10;;
36213;SDS011;37652;50.400;30.628;2022-09-17T04:31:40;9.32;;;8.30;;
36213;SDS011;37652;50.400;30.628;2022-09-17T04:33:41;9.15;;;7.90;;
36213;SDS011;37652;50.400;30.628;2022-09-17T04:35:42;8.68;;;7.85;;
36213;SDS011;37652;50.400;30.628;2022-09-17T04:37:42;8.18;;;7.38;;
36213;SDS011;37652;50.400;30.628;2022-09-17T04:39:43;8.93;;;7.72;;
36213;SDS011;37652;50.400;30.628;2022-09-17T04:41:44;9.65;;;8.35;;
36213;SDS011;37652;50.400;30.628;2022-09-17T04:43:45;9.93;;;8.20;;
36213;SDS011;37652;50.400;30.628;2022-09-17T04:45:46;9.75;;;8.23;;
36213;SDS011;37652;50.400;30.628;2022-09-17T04:47:48;10.10;;;7.32;;
36213;SDS011;37652;50.400;30.628;2022-09-17T04:49:52;11.60;;;8.75;;
36213;SDS011;37652;50.400;30.628;2022-09-17T04:51:53;10.75;;;7.95;;
36213;SDS011;37652;50.400;30.628;2022-09-17T04:53:54;11.98;;;8.13;;
36213;SDS011;37652;50.400;30.628;2022-09-17T04:55:55;11.27;;;8.98;;
36213;SDS011;37652;50.400;30.628;2022-09-17T04:57:56;8.93;;;7.95;;
36213;SDS011;37652;50.400;30.628;2022-09-17T05:01:58;10.20;;;9.07;;
36213;SDS011;37652;50.400;30.628;2022-09-17T05:03:59;8.48;;;7.63;;
36213;SDS011;37652;50.400;30.628;2022-09-17T05:06:00;8.70;;;7.80;;
36213;SDS011;37652;50.400;30.628;2022-09-17T05:08:01;8.38;;;7.50;;
36213;SDS011;37652;50.400;30.628;2022-09-17T05:10:02;8.40;;;7.65;;
36213;SDS011;37652;50.400;30.628;2022-09-17T05:12:04;7.80;;;6.97;;
36213;SDS011;37652;50.400;30.628;2022-09-17T05:14:04;9.43;;;7.93;;
36213;SDS011;37652;50.400;30.628;2022-09-17T05:16:05;13.02;;;9.13;;
36213;SDS011;37652;50.400;30.628;2022-09-17T05:18:06;9.50;;;8.60;;
36213;SDS011;37652;50.400;30.628;2022-09-17T05:20:07;8.25;;;7.45;;
36213;SDS011;37652;50.400;30.628;2022-09-17T05:22:08;9.57;;;8.50;;
36213;SDS011;37652;50.400;30.628;2022-09-17T05:24:09;9.35;;;8.23;;
36213;SDS011;37652;50.400;30.628;2022-09-17T05:26:10;10.23;;;9.10;;
36213;SDS011;37652;50.400;30.628;2022-09-17T05:28:11;8.48;;;7.63;;
36213;SDS011;37652;50.400;30.628;2022-09-17T05:30:12;9.23;;;7.88;;
36213;SDS011;37652;50.400;30.628;2022-09-17T05:32:13;11.10;;;8.60;;
36213;SDS011;37652;50.400;30.628;2022-09-17T05:34:14;9.48;;;8.48;;
36213;SDS011;37652;50.400;30.628;2022-09-17T05:36:15;8.68;;;7.78;;
36213;SDS011;37652;50.400;30.628;2022-09-17T05:38:16;8.88;;;8.07;;
36213;SDS011;37652;50.400;30.628;2022-09-17T05:40:17;9.57;;;8.30;;
36213;SDS011;37652;50.400;30.628;2022-09-17T05:42:18;17.23;;;15.23;;
36213;SDS011;37652;50.400;30.628;2022-09-17T05:44:19;20.55;;;14.88;;
36213;SDS011;37652;50.400;30.628;2022-09-17T05:48:21;20.13;;;13.43;;
36213;SDS011;37652;50.400;30.628;2022-09-17T05:52:25;14.95;;;11.15;;
36213;SDS011;37652;50.400;30.628;2022-09-17T05:54:27;11.05;;;10.05;;
36213;SDS011;37652;50.400;30.628;2022-09-17T05:56:28;12.55;;;11.25;;
36213;SDS011;37652;50.400;30.628;2022-09-17T05:58:29;11.38;;;10.15;;
36213;SDS011;37652;50.400;30.628;2022-09-17T06:00:33;14.32;;;10.75;;
36213;SDS011;37652;50.400;30.628;2022-09-17T06:02:34;12.05;;;10.25;;
36213;SDS011;37652;50.400;30.628;2022-09-17T06:04:35;15.00;;;11.00;;
36213;SDS011;37652;50.400;30.628;2022-09-17T06:06:36;13.65;;;10.95;;
36213;SDS011;37652;50.400;30.628;2022-09-17T06:08:37;14.57;;;11.02;;
36213;SDS011;37652;50.400;30.628;2022-09-17T06:10:39;16.58;;;10.63;;
36213;SDS011;37652;50.400;30.628;2022-09-17T06:14:41;11.60;;;10.50;;
36213;SDS011;37652;50.400;30.628;2022-09-17T06:16:41;11.50;;;10.30;;
36213;SDS011;37652;50.400;30.628;2022-09-17T06:18:42;11.27;;;9.40;;
36213;SDS011;37652;50.400;30.628;2022-09-17T06:20:51;10.50;;;9.60;;
36213;SDS011;37652;50.400;30.628;2022-09-17T06:22:57;10.80;;;8.85;;
36213;SDS011;37652;50.400;30.628;2022-09-17T06:24:58;10.07;;;9.00;;
36213;SDS011;37652;50.400;30.628;2022-09-17T06:27:01;10.35;;;9.05;;
36213;SDS011;37652;50.400;30.628;2022-09-17T06:29:02;13.13;;;9.07;;
36213;SDS011;37652;50.400;30.628;2022-09-17T06:31:04;11.32;;;10.23;;
36213;SDS011;37652;50.400;30.628;2022-09-17T06:33:06;10.20;;;9.18;;
36213;SDS011;37652;50.400;30.628;2022-09-17T06:35:07;9.80;;;8.27;;
36213;SDS011;37652;50.400;30.628;2022-09-17T06:39:09;13.73;;;9.87;;
36213;SDS011;37652;50.400;30.628;2022-09-17T06:41:10;10.98;;;9.82;;
36213;SDS011;37652;50.400;30.628;2022-09-17T06:43:13;11.10;;;8.52;;
36213;SDS011;37652;50.400;30.628;2022-09-17T06:45:14;12.48;;;9.95;;
36213;SDS011;37652;50.400;30.628;2022-09-17T06:47:15;11.95;;;9.43;;
36213;SDS011;37652;50.400;30.628;2022-09-17T06:49:19;10.68;;;9.40;;
36213;SDS011;37652;50.400;30.628;2022-09-17T06:51:21;10.88;;;9.35;;
36213;SDS011;37652;50.400;30.628;2022-09-17T06:53:22;10.15;;;8.45;;
36213;SDS011;37652;50.400;30.628;2022-09-17T06:57:24;10.97;;;8.93;;
36213;SDS011;37652;50.400;30.628;2022-09-17T06:59:25;11.48;;;9.98;;
36213;SDS011;37652;50.400;30.628;2022-09-17T07:01:27;13.15;;;9.48;;
36213;SDS011;37652;50.400;30.628;2022-09-17T07:03:28;11.93;;;9.82;;
36213;SDS011;37652;50.400;30.628;2022-09-17T07:05:30;9.73;;;8.75;;
36213;SDS011;37652;50.400;30.628;2022-09-17T07:07:32;10.85;;;9.15;;
36213;SDS011;37652;50.400;30.628;2022-09-17T07:09:34;11.45;;;9.95;;
36213;SDS011;37652;50.400;30.628;2022-09-17T07:11:35;12.20;;;8.75;;
36213;SDS011;37652;50.400;30.628;2022-09-17T07:13:36;14.70;;;10.38;;
36213;SDS011;37652;50.400;30.628;2022-09-17T07:15:38;10.52;;;9.52;;
36213;SDS011;37652;50.400;30.628;2022-09-17T07:17:39;12.63;;;10.57;;
36213;SDS011;37652;50.400;30.628;2022-09-17T07:19:40;10.65;;;9.57;;
36213;SDS011;37652;50.400;30.628;2022-09-17T07:21:41;10.32;;;9.30;;
36213;SDS011;37652;50.400;30.628;2022-09-17T07:23:42;11.45;;;8.98;;
36213;SDS011;37652;50.400;30.628;2022-09-17T07:25:49;10.95;;;9.88;;
36213;SDS011;37652;50.400;30.628;2022-09-17T07:27:51;11.00;;;9.57;;
36213;SDS011;37652;50.400;30.628;2022-09-17T07:29:52;10.45;;;8.93;;
36213;SDS011;37652;50.400;30.628;2022-09-17T07:33:54;13.63;;;9.60;;
36213;SDS011;37652;50.400;30.628;2022-09-17T07:35:56;12.18;;;10.10;;
36213;SDS011;37652;50.400;30.628;2022-09-17T07:37:58;10.73;;;9.63;;
36213;SDS011;37652;50.400;30.628;2022-09-17T07:39:59;13.23;;;10.90;;
36213;SDS011;37652;50.400;30.628;2022-09-17T07:42:00;11.18;;;9.68;;
36213;SDS011;37652;50.400;30.628;2022-09-17T07:44:03;10.90;;;9.90;;
36213;SDS011;37652;50.400;30.628;2022-09-17T07:46:06;12.65;;;10.90;;
36213;SDS011;37652;50.400;30.628;2022-09-17T07:48:12;12.82;;;11.48;;
36213;SDS011;37652;50.400;30.628;2022-09-17T07:50:13;12.45;;;10.95;;
36213;SDS011;37652;50.400;30.628;2022-09-17T07:52:14;11.48;;;10.48;;
36213;SDS011;37652;50.400;30.628;2022-09-17T07:54:15;11.45;;;10.27;;
36213;SDS011;37652;50.400;30.628;2022-09-17T07:56:16;9.98;;;8.98;;
36213;SDS011;37652;50.400;30.628;2022-09-17T07:58:17;10.73;;;9.60;;
36213;SDS011;37652;50.400;30.628;2022-09-17T08:00:18;11.15;;;10.15;;
36213;SDS011;37652;50.400;30.628;2022-09-17T08:02:19;10.52;;;9.52;;
36213;SDS011;37652;50.400;30.628;2022-09-17T08:06:22;11.03;;;10.00;;
36213;SDS011;37652;50.400;30.628;2022-09-17T08:08:25;12.85;;;11.10;;
36213;SDS011;37652;50.400;30.628;2022-09-17T08:10:26;16.02;;;11.73;;
36213;SDS011;37652;50.400;30.628;2022-09-17T08:14:27;14.33;;;12.97;;
36213;SDS011;37652;50.400;30.628;2022-09-17T08:16:28;21.90;;;12.75;;
36213;SDS011;37652;50.400;30.628;2022-09-17T08:18:30;21.02;;;12.75;;
36213;SDS011;37652;50.400;30.628;2022-09-17T08:20:31;13.50;;;12.25;;
36213;SDS011;37652;50.400;30.628;2022-09-17T08:22:32;15.63;;;11.50;;
36213;SDS011;37652;50.400;30.628;2022-09-17T08:24:33;10.70;;;9.60;;
36213;SDS011;37652;50.400;30.628;2022-09-17T08:26:34;11.30;;;10.27;;
36213;SDS011;37652;50.400;30.628;2022-09-17T08:28:35;11.77;;;10.65;;
36213;SDS011;37652;50.400;30.628;2022-09-17T08:30:36;14.70;;;10.63;;
36213;SDS011;37652;50.400;30.628;2022-09-17T08:32:37;12.35;;;10.73;;
36213;SDS011;37652;50.400;30.628;2022-09-17T08:34:38;12.70;;;11.07;;
36213;SDS011;37652;50.400;30.628;2022-09-17T08:36:40;13.65;;;10.45;;
36213;SDS011;37652;50.400;30.628;2022-09-17T08:38:41;11.45;;;9.48;;
36213;SDS011;37652;50.400;30.628;2022-09-17T08:40:44;12.43;;;10.10;;
36213;SDS011;37652;50.400;30.628;2022-09-17T08:43:07;12.25;;;11.18;;
36213;SDS011;37652;50.400;30.628;2022-09-17T08:45:12;13.02;;;10.35;;
36213;SDS011;37652;50.400;30.628;2022-09-17T08:51:55;11.57;;;10.25;;
36213;SDS011;37652;50.400;30.628;2022-09-17T08:56:26;10.48;;;9.50;;
36213;SDS011;37652;50.400;30.628;2022-09-17T08:58:48;10.55;;;9.48;;
36213;SDS011;37652;50.400;30.628;2022-09-17T09:01:01;10.10;;;9.07;;
36213;SDS011;37652;50.400;30.628;2022-09-17T09:05:43;9.18;;;8.27;;
36213;SDS011;37652;50.400;30.628;2022-09-17T09:08:05;10.02;;;8.73;;
36213;SDS011;37652;50.400;30.628;2022-09-17T09:10:28;13.30;;;7.80;;
36213;SDS011;37652;50.400;30.628;2022-09-17T09:12:36;10.32;;;7.82;;
36213;SDS011;37652;50.400;30.628;2022-09-17T09:14:44;11.57;;;8.25;;
36213;SDS011;37652;50.400;30.628;2022-09-17T09:16:55;8.38;;;7.53;;
36213;SDS011;37652;50.400;30.628;2022-09-17T09:18:58;8.95;;;6.85;;
36213;SDS011;37652;50.400;30.628;2022-09-17T09:23:16;8.07;;;7.25;;
36213;SDS011;37652;50.400;30.628;2022-09-17T09:25:23;8.85;;;7.43;;
36213;SDS011;37652;50.400;30.628;2022-09-17T09:27:26;9.55;;;7.38;;
36213;SDS011;37652;50.400;30.628;2022-09-17T09:29:43;11.93;;;8.40;;
36213;SDS011;37652;50.400;30.628;2022-09-17T09:34:19;11.48;;;9.45;;
36213;SDS011;37652;50.400;30.628;2022-09-17T09:36:25;9.80;;;7.55;;
36213;SDS011;37652;50.400;30.628;2022-09-17T09:38:32;10.65;;;8.50;;
36213;SDS011;37652;50.400;30.628;2022-09-17T09:40:54;10.07;;;8.10;;
36213;SDS011;37652;50.400;30.628;2022-09-17T09:43:30;8.43;;;7.63;;
36213;SDS011;37652;50.400;30.628;2022-09-17T09:50:31;6.97;;;6.40;;
36213;SDS011;37652;50.400;30.628;2022-09-17T09:52:55;7.10;;;6.40;;
36213;SDS011;37652;50.400;30.628;2022-09-17T09:57:15;7.13;;;6.43;;
36213;SDS011;37652;50.400;30.628;2022-09-17T09:59:21;10.10;;;7.05;;
36213;SDS011;37652;50.400;30.628;2022-09-17T10:01:24;6.68;;;5.95;;
36213;SDS011;37652;50.400;30.628;2022-09-17T10:03:31;7.03;;;6.43;;
36213;SDS011;37652;50.400;30.628;2022-09-17T10:05:35;7.05;;;6.05;;
36213;SDS011;37652;50.400;30.628;2022-09-17T10:07:42;6.15;;;5.65;;
36213;SDS011;37652;50.400;30.628;2022-09-17T10:09:44;8.95;;;6.30;;
36213;SDS011;37652;50.400;30.628;2022-09-17T10:14:21;5.97;;;5.40;;
36213;SDS011;37652;50.400;30.628;2022-09-17T10:16:24;6.78;;;6.07;;
36213;SDS011;37652;50.400;30.628;2022-09-17T10:18:26;6.28;;;5.63;;
36213;SDS011;37652;50.400;30.628;2022-09-17T10:20:27;6.45;;;5.72;;
36213;SDS011;37652;50.400;30.628;2022-09-17T10:22:29;6.60;;;5.75;;
36213;SDS011;37652;50.400;30.628;2022-09-17T10:24:32;5.60;;;5.10;;
36213;SDS011;37652;50.400;30.628;2022-09-17T10:26:34;11.02;;;5.32;;
36213;SDS011;37652;50.400;30.628;2022-09-17T10:28:39;5.95;;;5.18;;
36213;SDS011;37652;50.400;30.628;2022-09-17T10:30:55;6.40;;;5.68;;
36213;SDS011;37652;50.400;30.628;2022-09-17T10:39:47;8.20;;;5.68;;
36213;SDS011;37652;50.400;30.628;2022-09-17T10:41:52;6.18;;;5.57;;
36213;SDS011;37652;50.400;30.628;2022-09-17T10:43:53;6.25;;;5.75;;
36213;SDS011;37652;50.400;30.628;2022-09-17T10:45:55;6.82;;;5.90;;
36213;SDS011;37652;50.400;30.628;2022-09-17T10:47:58;7.93;;;6.40;;
36213;SDS011;37652;50.400;30.628;2022-09-17T10:50:03;11.10;;;9.52;;
36213;SDS011;37652;50.400;30.628;2022-09-17T10:52:11;8.55;;;6.25;;
36213;SDS011;37652;50.400;30.628;2022-09-17T10:54:18;8.82;;;5.38;;
36213;SDS011;37652;50.400;30.628;2022-09-17T10:56:28;7.57;;;5.25;;
36213;SDS011;37652;50.400;30.628;2022-09-17T10:58:44;6.82;;;6.22;;
36213;SDS011;37652;50.400;30.628;2022-09-17T11:01:22;6.32;;;5.63;;
36213;SDS011;37652;50.400;30.628;2022-09-17T11:26:53;6.00;;;5.43;;
36213;SDS011;37652;50.400;30.628;2022-09-17T11:32:01;6.00;;;5.20;;
36213;SDS011;37652;50.400;30.628;2022-09-17T11:43:47;9.70;;;8.63;;
36213;SDS011;37652;50.400;30.628;2022-09-17T11:45:26;9.95;;;6.88;;
36213;SDS011;37652;50.400;30.628;2022-09-17T11:47:35;6.53;;;5.93;;
36213;SDS011;37652;50.400;30.628;2022-09-17T11:52:04;7.80;;;6.40;;
36213;SDS011;37652;50.400;30.628;2022-09-17T11:54:07;7.53;;;6.90;;
36213;SDS011;37652;50.400;30.628;2022-09-17T12:00:46;7.95;;;7.07;;
36213;SDS011;37652;50.400;30.628;2022-09-17T12:03:04;6.55;;;6.00;;
36213;SDS011;37652;50.400;30.628;2022-09-17T12:05:15;8.25;;;7.45;;
36213;SDS011;37652;50.400;30.628;2022-09-17T12:09:47;7.40;;;6.80;;
36213;SDS011;37652;50.400;30.628;2022-09-17T12:14:16;9.85;;;7.35;;
36213;SDS011;37652;50.400;30.628;2022-09-17T12:20:52;8.25;;;7.55;;
36213;SDS011;37652;50.400;30.628;2022-09-17T12:22:54;8.73;;;7.88;;
36213;SDS011;37652;50.400;30.628;2022-09-17T12:24:57;9.07;;;8.27;;
36213;SDS011;37652;50.400;30.628;2022-09-17T12:31:44;8.30;;;7.50;;
36213;SDS011;37652;50.400;30.628;2022-09-17T12:34:27;11.98;;;7.97;;
36213;SDS011;37652;50.400;30.628;2022-09-17T12:36:50;9.45;;;8.50;;
36213;SDS011;37652;50.400;30.628;2022-09-17T12:39:13;7.72;;;7.03;;
36213;SDS011;37652;50.400;30.628;2022-09-17T13:01:06;8.10;;;6.38;;
36213;SDS011;37652;50.400;30.628;2022-09-17T13:03:21;7.68;;;6.40;;
36213;SDS011;37652;50.400;30.628;2022-09-17T13:07:44;8.90;;;7.47;;
36213;SDS011;37652;50.400;30.628;2022-09-17T13:10:00;7.80;;;7.10;;
36213;SDS011;37652;50.400;30.628;2022-09-17T13:14:18;7.75;;;7.05;;
36213;SDS011;37652;50.400;30.628;2022-09-17T13:16:35;8.55;;;7.22;;
36213;SDS011;37652;50.400;30.628;2022-09-17T13:21:12;9.95;;;8.48;;
36213;SDS011;37652;50.400;30.628;2022-09-17T13:23:33;11.18;;;9.18;;
36213;SDS011;37652;50.400;30.628;2022-09-17T13:25:48;12.00;;;10.90;;
36213;SDS011;37652;50.400;30.628;2022-09-17T13:28:02;10.02;;;8.93;;
36213;SDS011;37652;50.400;30.628;2022-09-17T13:30:07;10.18;;;9.32;;
36213;SDS011;37652;50.400;30.628;2022-09-17T13:34:32;9.52;;;8.63;;
36213;SDS011;37652;50.400;30.628;2022-09-17T13:36:36;11.65;;;10.55;;
36213;SDS011;37652;50.400;30.628;2022-09-17T13:38:49;10.63;;;9.32;;
36213;SDS011;37652;50.400;30.628;2022-09-17T13:40:50;8.90;;;8.10;;
36213;SDS011;37652;50.400;30.628;2022-09-17T13:43:10;9.13;;;8.23;;
36213;SDS011;37652;50.400;30.628;2022-09-17T13:45:16;9.73;;;8.85;;
36213;SDS011;37652;50.400;30.628;2022-09-17T13:47:19;9.43;;;8.63;;
36213;SDS011;37652;50.400;30.628;2022-09-17T13:49:20;10.90;;;9.90;;
36213;SDS011;37652;50.400;30.628;2022-09-17T13:53:31;11.40;;;9.80;;
36213;SDS011;37652;50.400;30.628;2022-09-17T13:55:37;10.20;;;8.95;;
36213;SDS011;37652;50.400;30.628;2022-09-17T13:57:46;14.90;;;12.00;;
36213;SDS011;37652;50.400;30.628;2022-09-17T13:59:53;16.25;;;12.85;;
36213;SDS011;37652;50.400;30.628;2022-09-17T14:02:00;13.05;;;11.82;;
36213;SDS011;37652;50.400;30.628;2022-09-17T14:04:33;11.50;;;10.40;;
36213;SDS011;37652;50.400;30.628;2022-09-17T14:10:44;12.02;;;10.82;;
36213;SDS011;37652;50.400;30.628;2022-09-17T14:12:53;12.50;;;11.20;;
36213;SDS011;37652;50.400;30.628;2022-09-17T14:14:59;15.38;;;12.70;;
36213;SDS011;37652;50.400;30.628;2022-09-17T14:17:00;13.10;;;11.70;;
36213;SDS011;37652;50.400;30.628;2022-09-17T14:21:21;12.55;;;11.20;;
36213;SDS011;37652;50.400;30.628;2022-09-17T14:23:25;12.70;;;11.50;;
36213;SDS011;37652;50.400;30.628;2022-09-17T14:25:36;13.65;;;11.65;;
36213;SDS011;37652;50.400;30.628;2022-09-17T14:27:45;12.20;;;10.65;;
36213;SDS011;37652;50.400;30.628;2022-09-17T14:32:05;16.08;;;14.25;;
36213;SDS011;37652;50.400;30.628;2022-09-17T14:34:10;15.13;;;13.27;;
36213;SDS011;37652;50.400;30.628;2022-09-17T14:36:19;17.13;;;15.32;;
36213;SDS011;37652;50.400;30.628;2022-09-17T14:38:22;15.85;;;13.95;;
36213;SDS011;37652;50.400;30.628;2022-09-17T14:40:46;14.80;;;13.35;;
36213;SDS011;37652;50.400;30.628;2022-09-17T14:42:49;15.13;;;13.57;;
36213;SDS011;37652;50.400;30.628;2022-09-17T14:44:58;13.68;;;12.27;;
36213;SDS011;37652;50.400;30.628;2022-09-17T14:47:04;15.27;;;13.75;;
36213;SDS011;37652;50.400;30.628;2022-09-17T14:49:14;18.40;;;14.68;;
36213;SDS011;37652;50.400;30.628;2022-09-17T14:51:25;13.00;;;11.77;;
36213;SDS011;37652;50.400;30.628;2022-09-17T14:53:27;13.23;;;11.93;;
36213;SDS011;37652;50.400;30.628;2022-09-17T14:55:32;15.52;;;12.13;;
36213;SDS011;37652;50.400;30.628;2022-09-17T14:57:33;12.90;;;11.40;;
36213;SDS011;37652;50.400;30.628;2022-09-17T14:59:40;11.30;;;10.18;;
36213;SDS011;37652;50.400;30.628;2022-09-17T15:01:44;11.35;;;9.98;;
36213;SDS011;37652;50.400;30.628;2022-09-17T15:03:46;11.40;;;10.30;;
36213;SDS011;37652;50.400;30.628;2022-09-17T15:05:47;13.20;;;11.52;;
36213;SDS011;37652;50.400;30.628;2022-09-17T15:07:49;12.48;;;11.35;;
36213;SDS011;37652;50.400;30.628;2022-09-17T15:09:51;11.68;;;10.00;;
36213;SDS011;37652;50.400;30.628;2022-09-17T15:11:54;11.25;;;10.23;;
36213;SDS011;37652;50.400;30.628;2022-09-17T15:13:57;11.63;;;10.45;;
36213;SDS011;37652;50.400;30.628;2022-09-17T15:16:21;13.00;;;11.20;;
36213;SDS011;37652;50.400;30.628;2022-09-17T15:18:30;12.48;;;11.27;;
36213;SDS011;37652;50.400;30.628;2022-09-17T15:20:35;13.27;;;11.50;;
36213;SDS011;37652;50.400;30.628;2022-09-17T15:22:36;13.73;;;11.75;;